createdAt,value
2024-01-25T00:02:17.028Z,8.20
2024-01-25T00:04:47.466Z,7.43
2024-01-25T00:07:17.934Z,7.00
2024-01-25T00:09:50.912Z,7.60
2024-01-25T00:12:21.302Z,7.55
2024-01-25T00:14:52.403Z,7.25
2024-01-25T00:17:22.841Z,8.70
2024-01-25T00:19:53.493Z,7.18
2024-01-25T00:22:24.001Z,7.20
2024-01-25T00:24:57.009Z,7.68
2024-01-25T00:27:27.505Z,7.10
2024-01-25T00:29:58.031Z,5.50
2024-01-25T00:32:28.674Z,7.40
2024-01-25T00:35:00.196Z,6.30
2024-01-25T00:37:31.727Z,6.85
2024-01-25T00:40:05.771Z,7.55
2024-01-25T00:42:40.873Z,8.07
2024-01-25T00:45:13.449Z,7.25
2024-01-25T00:47:45.093Z,7.55
2024-01-25T00:50:18.868Z,7.43
2024-01-25T00:52:50.343Z,5.35
2024-01-25T00:55:24.635Z,7.80
2024-01-25T00:57:56.340Z,6.47
2024-01-25T01:00:28.786Z,7.43
2024-01-25T01:03:04.403Z,7.88
2024-01-25T01:05:36.037Z,6.50
2024-01-25T01:08:08.013Z,6.28
2024-01-25T01:10:41.014Z,6.78
2024-01-25T01:13:11.434Z,6.63
2024-01-25T01:15:41.829Z,6.70
2024-01-25T01:18:12.462Z,6.22
2024-01-25T01:20:42.881Z,7.35
2024-01-25T01:23:13.208Z,7.25
2024-01-25T01:25:46.133Z,7.47
2024-01-25T01:28:16.750Z,7.50
2024-01-25T01:30:47.290Z,7.57
2024-01-25T01:33:18.089Z,6.70
2024-01-25T01:35:49.806Z,7.50
2024-01-25T01:38:20.593Z,7.15
2024-01-25T01:40:53.503Z,5.93
2024-01-25T01:43:24.689Z,6.53
2024-01-25T01:45:55.157Z,6.13
2024-01-25T01:48:25.688Z,6.55
2024-01-25T01:50:56.427Z,7.43
2024-01-25T01:53:26.851Z,6.75
2024-01-25T01:56:00.041Z,6.65
2024-01-25T01:58:32.081Z,6.03
2024-01-25T02:01:04.445Z,6.03
2024-01-25T02:03:35.137Z,6.75
2024-01-25T02:06:06.381Z,6.30
2024-01-25T02:08:37.200Z,6.22
2024-01-25T02:11:10.413Z,6.45
2024-01-25T02:13:40.722Z,7.03
2024-01-25T02:16:12.500Z,7.07
2024-01-25T02:18:43.998Z,6.13
2024-01-25T02:21:14.833Z,6.30
2024-01-25T02:23:47.816Z,6.15
2024-01-25T02:26:18.185Z,6.38
2024-01-25T02:28:48.524Z,6.68
2024-01-25T02:31:19.021Z,7.55
2024-01-25T02:33:49.630Z,8.07
2024-01-25T02:36:20.503Z,6.88
2024-01-25T02:38:53.418Z,7.60
2024-01-25T02:41:23.748Z,7.95
2024-01-25T02:43:54.104Z,8.02
2024-01-25T02:46:24.467Z,6.05
2024-01-25T02:48:55.146Z,8.25
2024-01-25T02:51:25.597Z,7.20
2024-01-25T02:53:58.545Z,6.80
2024-01-25T02:56:34.752Z,6.35
2024-01-25T02:59:05.250Z,7.18
2024-01-25T03:01:44.120Z,7.90
2024-01-25T03:04:14.792Z,6.60
2024-01-25T03:06:45.501Z,7.32
2024-01-25T03:09:18.570Z,7.80
2024-01-25T03:11:48.869Z,8.02
2024-01-25T03:14:19.414Z,8.48
2024-01-25T03:16:49.771Z,7.85
2024-01-25T03:19:20.264Z,7.60
2024-01-25T03:21:50.873Z,7.15
2024-01-25T03:24:23.919Z,6.90
2024-01-25T03:26:54.290Z,7.10
2024-01-25T03:29:24.830Z,7.43
2024-01-25T03:31:55.140Z,6.90
2024-01-25T03:34:25.625Z,6.85
2024-01-25T03:36:56.056Z,8.10
2024-01-25T03:39:29.359Z,7.22
2024-01-25T03:41:59.896Z,7.93
2024-01-25T03:44:30.393Z,8.25
2024-01-25T03:47:00.819Z,8.90
2024-01-25T03:49:31.841Z,7.68
2024-01-25T03:52:02.215Z,7.38
2024-01-25T03:54:35.412Z,8.30
2024-01-25T03:57:05.902Z,8.00
2024-01-25T03:59:36.297Z,7.07
2024-01-25T04:02:06.909Z,8.15
2024-01-25T04:04:37.520Z,8.35
2024-01-25T04:07:08.322Z,9.95
2024-01-25T04:09:41.536Z,9.45
2024-01-25T04:12:12.546Z,11.13
2024-01-25T04:14:42.870Z,9.88
2024-01-25T04:17:13.253Z,9.55
2024-01-25T04:19:43.702Z,10.85
2024-01-25T04:22:14.162Z,10.90
2024-01-25T04:24:50.017Z,10.15
2024-01-25T04:27:20.620Z,10.77
2024-01-25T04:29:51.055Z,10.35
2024-01-25T04:32:21.685Z,9.30
2024-01-25T04:34:52.156Z,9.93
2024-01-25T04:37:22.648Z,10.23
2024-01-25T04:39:55.703Z,10.15
2024-01-25T04:42:26.293Z,10.80
2024-01-25T04:44:56.723Z,10.30
2024-01-25T04:47:27.162Z,9.80
2024-01-25T04:49:57.633Z,9.57
2024-01-25T04:52:28.019Z,10.30
2024-01-25T04:55:01.065Z,10.68
2024-01-25T04:57:31.521Z,10.23
2024-01-25T05:00:01.881Z,10.45
2024-01-25T05:02:32.213Z,10.20
2024-01-25T05:05:02.687Z,10.48
2024-01-25T05:07:33.233Z,9.13
2024-01-25T05:10:06.493Z,9.35
2024-01-25T05:12:36.916Z,10.55
2024-01-25T05:15:08.367Z,9.60
2024-01-25T05:17:38.748Z,9.18
2024-01-25T05:20:11.781Z,9.20
2024-01-25T05:22:43.343Z,9.10
2024-01-25T05:25:16.627Z,8.95
2024-01-25T05:27:47.060Z,8.15
2024-01-25T05:30:19.033Z,8.43
2024-01-25T05:32:51.000Z,8.20
2024-01-25T05:35:22.156Z,8.88
2024-01-25T05:37:52.768Z,8.25
2024-01-25T05:40:25.742Z,8.00
2024-01-25T05:42:56.599Z,9.15
2024-01-25T05:45:27.644Z,7.88
2024-01-25T05:47:58.096Z,7.88
2024-01-25T05:50:28.586Z,9.65
2024-01-25T05:52:58.933Z,9.15
2024-01-25T05:55:32.253Z,8.18
2024-01-25T05:58:02.772Z,8.43
2024-01-25T06:00:33.273Z,8.45
2024-01-25T06:03:03.687Z,9.43
2024-01-25T06:05:34.251Z,8.80
2024-01-25T06:08:04.884Z,9.70
2024-01-25T06:10:37.918Z,7.78
2024-01-25T06:13:08.750Z,8.43
2024-01-25T06:15:40.107Z,7.32
2024-01-25T06:18:10.699Z,6.72
2024-01-25T06:20:41.295Z,7.35
2024-01-25T06:23:11.658Z,7.28
2024-01-25T06:25:44.582Z,6.82
2024-01-25T06:28:15.006Z,6.53
2024-01-25T06:30:45.453Z,6.38
2024-01-25T06:33:15.849Z,6.97
2024-01-25T06:35:46.394Z,5.50
2024-01-25T06:38:16.917Z,5.55
2024-01-25T06:40:49.885Z,4.80
2024-01-25T06:43:22.415Z,4.75
2024-01-25T06:45:52.886Z,4.60
2024-01-25T06:48:23.396Z,4.45
2024-01-25T06:50:53.980Z,4.38
2024-01-25T06:53:25.425Z,4.30
2024-01-25T06:55:58.452Z,5.28
2024-01-25T06:58:28.962Z,5.47
2024-01-25T07:01:00.528Z,5.90
2024-01-25T07:03:31.730Z,6.82
2024-01-25T07:06:03.514Z,6.43
2024-01-25T07:08:33.981Z,6.22
2024-01-25T07:11:07.205Z,7.72
2024-01-25T07:13:37.761Z,6.82
2024-01-25T07:16:09.495Z,7.90
2024-01-25T07:18:40.156Z,7.28
2024-01-25T07:21:10.598Z,8.15
2024-01-25T07:23:40.966Z,8.32
2024-01-25T07:26:13.861Z,8.50
2024-01-25T07:28:44.185Z,8.85
2024-01-25T07:31:14.629Z,9.35
2024-01-25T07:33:45.180Z,9.70
2024-01-25T07:36:17.709Z,9.35
2024-01-25T07:38:48.481Z,12.52
2024-01-25T07:41:21.517Z,10.60
2024-01-25T07:43:56.506Z,11.10
2024-01-25T07:46:28.227Z,11.20
2024-01-25T07:48:58.741Z,11.07
2024-01-25T07:51:30.305Z,11.45
2024-01-25T07:54:01.044Z,11.02
2024-01-25T07:56:33.998Z,11.20
2024-01-25T07:59:04.341Z,11.60
2024-01-25T08:01:35.100Z,12.75
2024-01-25T08:04:05.575Z,12.52
2024-01-25T08:06:36.194Z,12.90
2024-01-25T08:09:07.110Z,12.30
2024-01-25T08:11:40.102Z,13.50
2024-01-25T08:14:10.549Z,13.20
2024-01-25T08:16:41.140Z,13.48
2024-01-25T08:19:11.645Z,14.10
2024-01-25T08:21:42.303Z,13.20
2024-01-25T08:24:13.059Z,14.07
2024-01-25T08:26:46.092Z,13.07
2024-01-25T08:29:16.501Z,12.32
2024-01-25T08:31:47.582Z,14.30
2024-01-25T08:34:18.171Z,13.30
2024-01-25T08:36:48.725Z,13.80
2024-01-25T08:39:19.108Z,12.18
2024-01-25T08:41:52.157Z,13.15
2024-01-25T08:44:22.570Z,13.02
2024-01-25T08:46:52.915Z,12.85
2024-01-25T08:49:23.411Z,12.93
2024-01-25T08:51:53.936Z,12.15
2024-01-25T08:54:24.369Z,13.00
2024-01-25T08:56:57.360Z,13.23
2024-01-25T08:59:28.086Z,13.82
2024-01-25T09:01:58.627Z,13.38
2024-01-25T09:04:29.143Z,12.95
2024-01-25T09:06:59.631Z,13.98
2024-01-25T09:09:30.163Z,15.73
2024-01-25T09:12:03.109Z,14.13
2024-01-25T09:14:33.729Z,13.25
2024-01-25T09:17:04.085Z,14.15
2024-01-25T09:19:34.697Z,12.95
2024-01-25T09:22:06.113Z,13.90
2024-01-25T09:24:37.717Z,15.45
2024-01-25T09:27:10.828Z,14.43
2024-01-25T09:29:42.457Z,15.05
2024-01-25T09:32:13.703Z,14.23
2024-01-25T09:34:44.326Z,15.38
2024-01-25T09:37:16.283Z,15.25
2024-01-25T09:39:47.051Z,14.68
2024-01-25T09:42:20.210Z,15.48
2024-01-25T09:44:50.581Z,15.60
2024-01-25T09:47:23.014Z,15.65
2024-01-25T09:49:53.653Z,15.23
2024-01-25T09:52:29.039Z,16.15
2024-01-25T09:55:00.553Z,16.30
2024-01-25T09:57:36.008Z,14.63
2024-01-25T10:00:13.323Z,15.98
2024-01-25T10:02:43.832Z,15.45
2024-01-25T10:05:14.279Z,14.30
2024-01-25T10:07:46.389Z,13.38
2024-01-25T10:10:18.215Z,13.57
2024-01-25T10:12:51.221Z,13.65
2024-01-25T10:15:21.630Z,12.93
2024-01-25T10:18:07.092Z,11.80
2024-01-25T10:20:42.993Z,12.05
2024-01-25T10:23:14.147Z,11.27
2024-01-25T10:25:44.707Z,11.27
2024-01-25T10:28:18.054Z,10.27
2024-01-25T10:30:48.671Z,10.63
2024-01-25T10:33:21.005Z,11.23
2024-01-25T10:35:52.802Z,12.15
2024-01-25T10:38:23.295Z,10.88
2024-01-25T10:40:54.584Z,10.82
2024-01-25T10:43:27.771Z,10.73
2024-01-25T10:46:01.941Z,10.88
2024-01-25T10:48:35.705Z,9.88
2024-01-25T10:51:06.864Z,10.88
2024-01-25T10:53:38.572Z,9.15
2024-01-25T10:56:10.695Z,9.35
2024-01-25T10:58:45.811Z,9.45
2024-01-25T11:01:16.931Z,10.23
2024-01-25T11:03:50.504Z,9.93
2024-01-25T11:06:25.215Z,10.23
2024-01-25T11:08:55.672Z,9.13
2024-01-25T11:11:26.436Z,8.95
2024-01-25T11:14:00.499Z,8.75
2024-01-25T11:16:36.008Z,7.93
2024-01-25T11:19:09.582Z,7.47
2024-01-25T11:21:45.683Z,7.50
2024-01-25T11:24:20.045Z,7.05
2024-01-25T11:26:51.190Z,6.65
2024-01-25T11:29:25.882Z,6.47
2024-01-25T11:31:57.531Z,6.28
2024-01-25T11:34:27.940Z,6.57
2024-01-25T11:36:59.190Z,6.10
2024-01-25T11:39:29.464Z,9.07
2024-01-25T11:41:59.805Z,11.63
2024-01-25T11:44:32.677Z,14.02
2024-01-25T11:47:03.008Z,12.88
2024-01-25T11:49:33.438Z,13.32
2024-01-25T11:52:03.960Z,12.70
2024-01-25T11:54:34.334Z,12.10
2024-01-25T11:57:04.716Z,10.80
2024-01-25T11:59:38.155Z,9.95
2024-01-25T12:02:09.088Z,7.43
2024-01-25T12:04:40.161Z,6.53
2024-01-25T12:07:11.521Z,4.65
2024-01-25T12:09:41.883Z,4.70
2024-01-25T12:12:13.993Z,4.00
2024-01-25T12:14:48.027Z,3.92
2024-01-25T12:17:18.314Z,4.05
2024-01-25T12:19:48.735Z,3.72
2024-01-25T12:22:25.392Z,3.80
2024-01-25T12:25:00.730Z,4.05
2024-01-25T12:27:34.044Z,3.92
2024-01-25T12:30:08.172Z,3.90
2024-01-25T12:32:38.632Z,4.53
2024-01-25T12:35:10.799Z,4.60
2024-01-25T12:37:41.367Z,5.20
2024-01-25T12:40:13.110Z,4.10
2024-01-25T12:42:44.270Z,4.07
2024-01-25T12:45:20.537Z,3.95
2024-01-25T12:47:51.187Z,2.90
2024-01-25T12:50:21.582Z,3.30
2024-01-25T12:52:52.379Z,2.85
2024-01-25T12:55:23.165Z,3.15
2024-01-25T12:57:55.713Z,3.20
2024-01-25T13:00:29.106Z,3.13
2024-01-25T13:02:59.374Z,3.33
2024-01-25T13:05:30.050Z,3.17
2024-01-25T13:08:00.736Z,3.08
2024-01-25T13:10:31.014Z,3.35
2024-01-25T13:13:01.770Z,3.40
2024-01-25T13:15:34.670Z,3.42
2024-01-25T13:18:05.383Z,3.42
2024-01-25T13:20:35.668Z,3.30
2024-01-25T13:23:06.157Z,3.83
2024-01-25T13:25:36.382Z,3.75
2024-01-25T13:28:06.987Z,4.10
2024-01-25T13:30:39.881Z,4.70
2024-01-25T13:33:10.286Z,4.10
2024-01-25T13:35:40.593Z,3.63
2024-01-25T13:38:15.816Z,3.92
2024-01-25T13:40:46.325Z,3.90
2024-01-25T13:43:17.564Z,5.05
2024-01-25T13:45:50.645Z,3.97
2024-01-25T13:48:22.142Z,3.45
2024-01-25T13:50:52.479Z,4.50
2024-01-25T13:53:22.772Z,4.25
2024-01-25T13:55:53.031Z,3.90
2024-01-25T13:58:23.257Z,3.90
2024-01-25T14:00:56.233Z,3.65
2024-01-25T14:03:26.731Z,4.25
2024-01-25T14:05:58.593Z,4.28
2024-01-25T14:08:29.087Z,2.88
2024-01-25T14:10:59.564Z,2.53
2024-01-25T14:13:29.833Z,2.10
2024-01-25T14:16:03.101Z,1.98
2024-01-25T14:18:40.036Z,2.13
2024-01-25T14:21:11.309Z,2.40
2024-01-25T14:23:42.210Z,2.33
2024-01-25T14:26:12.542Z,2.55
2024-01-25T14:28:43.058Z,2.75
2024-01-25T14:31:15.996Z,2.30
2024-01-25T14:33:46.907Z,1.90
2024-01-25T14:36:18.078Z,1.80
2024-01-25T14:38:48.415Z,1.67
2024-01-25T14:41:18.864Z,1.77
2024-01-25T14:43:50.239Z,2.28
2024-01-25T14:46:23.054Z,2.85
2024-01-25T14:48:53.384Z,2.72
2024-01-25T14:51:23.875Z,2.38
2024-01-25T14:53:54.158Z,1.92
2024-01-25T14:56:24.420Z,1.80
2024-01-25T14:58:54.657Z,1.65
2024-01-25T15:01:30.352Z,1.50
2024-01-25T15:04:00.953Z,1.75
2024-01-25T15:06:31.412Z,2.00
2024-01-25T15:09:01.761Z,2.17
2024-01-25T15:11:32.036Z,2.83
2024-01-25T15:14:02.270Z,2.60
2024-01-25T15:16:35.724Z,2.47
2024-01-25T15:19:06.288Z,2.20
2024-01-25T15:21:36.829Z,2.20
2024-01-25T15:24:08.081Z,2.28
2024-01-25T15:26:38.558Z,2.75
2024-01-25T15:29:08.824Z,2.20
2024-01-25T15:31:41.819Z,1.98
2024-01-25T15:34:12.241Z,2.20
2024-01-25T15:36:45.119Z,2.28
2024-01-25T15:39:15.888Z,2.70
2024-01-25T15:41:50.623Z,2.60
2024-01-25T15:46:53.983Z,2.33
2024-01-25T15:49:24.547Z,2.65
2024-01-25T15:51:54.900Z,2.45
2024-01-25T15:54:25.261Z,2.65
2024-01-25T15:56:55.844Z,2.72
2024-01-25T15:59:26.073Z,2.40
2024-01-25T16:01:58.971Z,2.65
2024-01-25T16:04:29.353Z,2.53
2024-01-25T16:06:59.720Z,2.60
2024-01-25T16:09:29.986Z,2.33
2024-01-25T16:12:00.377Z,2.00
2024-01-25T16:14:30.597Z,1.80
2024-01-25T16:17:03.497Z,2.05
2024-01-25T16:19:34.050Z,2.47
2024-01-25T16:22:04.455Z,2.25
2024-01-25T16:24:34.744Z,2.30
2024-01-25T16:27:05.488Z,2.40
2024-01-25T16:29:35.742Z,2.10
2024-01-25T16:32:10.088Z,2.33
2024-01-25T16:34:40.629Z,2.35
2024-01-25T16:37:10.934Z,2.50
2024-01-25T16:39:41.351Z,3.03
2024-01-25T16:42:11.696Z,3.00
2024-01-25T16:44:41.924Z,2.65
2024-01-25T16:47:15.531Z,3.03
2024-01-25T16:49:45.869Z,2.58
2024-01-25T16:52:16.144Z,2.53
2024-01-25T16:54:46.514Z,2.03
2024-01-25T16:57:16.990Z,2.65
2024-01-25T16:59:47.229Z,2.60
2024-01-25T17:02:20.042Z,2.70
2024-01-25T17:04:50.457Z,2.25
2024-01-25T17:07:20.853Z,2.58
2024-01-25T17:09:51.421Z,2.30
2024-01-25T17:12:23.096Z,2.20
2024-01-25T17:14:53.486Z,2.30
2024-01-25T17:17:27.907Z,2.33
2024-01-25T17:20:00.073Z,2.28
2024-01-25T17:22:31.492Z,2.20
2024-01-25T17:25:01.867Z,2.00
2024-01-25T17:27:32.247Z,2.10
2024-01-25T17:30:02.497Z,1.70
2024-01-25T17:32:35.430Z,1.73
2024-01-25T17:35:07.154Z,2.20
2024-01-25T17:37:37.499Z,2.10
2024-01-25T17:40:09.560Z,2.03
2024-01-25T17:42:39.881Z,2.08
2024-01-25T17:45:12.330Z,1.77
2024-01-25T17:47:45.280Z,1.70
2024-01-25T17:50:15.763Z,2.30
2024-01-25T17:52:46.075Z,1.85
2024-01-25T17:55:16.602Z,2.00
2024-01-25T17:57:46.994Z,2.20
2024-01-25T18:00:19.710Z,1.95
2024-01-25T18:02:52.679Z,2.00
2024-01-25T18:05:22.967Z,1.83
2024-01-25T18:07:53.373Z,2.13
2024-01-25T18:10:23.636Z,2.25
2024-01-25T18:12:53.989Z,1.88
2024-01-25T18:15:24.278Z,2.20
2024-01-25T18:17:57.117Z,2.35
2024-01-25T18:20:27.580Z,2.50
2024-01-25T18:22:57.870Z,3.08
2024-01-25T18:25:28.090Z,2.90
2024-01-25T18:28:00.874Z,2.63
2024-01-25T18:30:31.238Z,2.33
2024-01-25T18:33:04.343Z,2.58
2024-01-25T18:35:34.713Z,2.30
2024-01-25T18:38:04.961Z,3.30
2024-01-25T18:40:36.469Z,2.75
2024-01-25T18:43:07.452Z,3.08
2024-01-25T18:45:37.858Z,3.00
2024-01-25T18:48:12.465Z,2.45
2024-01-25T18:50:43.617Z,3.15
2024-01-25T18:53:13.913Z,3.15
2024-01-25T18:55:45.592Z,3.22
2024-01-25T18:58:16.963Z,3.20
2024-01-25T19:00:48.653Z,3.60
2024-01-25T19:03:22.668Z,3.13
2024-01-25T19:05:56.819Z,2.88
2024-01-25T19:08:28.870Z,3.43
2024-01-25T19:11:00.712Z,2.90
2024-01-25T19:13:31.271Z,2.83
2024-01-25T19:16:01.571Z,3.17
2024-01-25T19:18:34.547Z,3.35
2024-01-25T19:21:05.781Z,3.00
2024-01-25T19:23:36.836Z,3.67
2024-01-25T19:26:07.559Z,3.58
2024-01-25T19:28:39.714Z,4.20
2024-01-25T19:31:09.984Z,4.20
2024-01-25T19:33:43.168Z,3.50
2024-01-25T19:36:13.737Z,4.15
2024-01-25T19:38:44.787Z,4.40
2024-01-25T19:41:15.300Z,4.40
2024-01-25T19:43:45.578Z,4.75
2024-01-25T19:46:16.523Z,4.35
2024-01-25T19:48:50.275Z,4.43
2024-01-25T19:51:20.647Z,4.68
2024-01-25T19:53:51.014Z,4.60
2024-01-25T19:56:21.525Z,4.20
2024-01-25T19:58:54.688Z,4.85
2024-01-25T20:01:26.243Z,5.13
2024-01-25T20:04:00.613Z,4.80
2024-01-25T20:06:32.060Z,5.43
2024-01-25T20:09:02.403Z,5.32
2024-01-25T20:11:32.745Z,5.25
2024-01-25T20:14:03.175Z,5.53
2024-01-25T20:16:33.483Z,5.30
2024-01-25T20:19:06.672Z,5.13
2024-01-25T20:21:37.062Z,5.80
2024-01-25T20:24:08.011Z,5.40
2024-01-25T20:26:38.325Z,6.05
2024-01-25T20:29:08.676Z,7.13
2024-01-25T20:31:39.038Z,6.45
2024-01-25T20:34:12.069Z,6.43
2024-01-25T20:36:42.419Z,6.50
2024-01-25T20:39:12.817Z,6.70
2024-01-25T20:41:43.156Z,6.30
2024-01-25T20:44:13.515Z,6.18
2024-01-25T20:46:43.852Z,6.20
2024-01-25T20:49:16.915Z,5.70
2024-01-25T20:51:47.402Z,5.95
2024-01-25T20:54:17.854Z,5.68
2024-01-25T20:56:49.164Z,5.30
2024-01-25T20:59:20.386Z,6.38
2024-01-25T21:01:52.328Z,5.47
2024-01-25T21:04:26.869Z,6.18
2024-01-25T21:06:58.109Z,6.30
2024-01-25T21:09:29.562Z,5.78
2024-01-25T21:12:00.927Z,5.90
2024-01-25T21:14:33.281Z,5.30
2024-01-25T21:17:03.660Z,5.07
2024-01-25T21:19:36.812Z,5.35
2024-01-25T21:22:07.838Z,5.03
2024-01-25T21:24:38.233Z,5.65
2024-01-25T21:27:09.114Z,5.25
2024-01-25T21:29:39.721Z,5.47
2024-01-25T21:32:10.606Z,5.57
2024-01-25T21:34:43.866Z,5.20
2024-01-25T21:37:14.311Z,5.60
2024-01-25T21:39:44.704Z,5.80
2024-01-25T21:42:15.078Z,4.60
2024-01-25T21:44:47.050Z,4.70
2024-01-25T21:47:17.620Z,5.90
2024-01-25T21:49:51.282Z,6.22
2024-01-25T21:52:22.692Z,6.30
2024-01-25T21:54:53.386Z,6.20
2024-01-25T21:57:23.908Z,5.88
2024-01-25T21:59:54.595Z,6.00
2024-01-25T22:02:25.068Z,6.32
2024-01-25T22:04:58.056Z,6.00
2024-01-25T22:07:28.960Z,5.85
2024-01-25T22:09:59.416Z,6.03
2024-01-25T22:12:29.851Z,5.97
2024-01-25T22:15:00.256Z,5.68
2024-01-25T22:17:30.616Z,6.13
2024-01-25T22:20:03.761Z,6.03
2024-01-25T22:22:34.391Z,6.82
2024-01-25T22:25:05.039Z,7.18
2024-01-25T22:27:35.505Z,7.00
2024-01-25T22:30:06.028Z,7.20
2024-01-25T22:32:36.399Z,7.07
2024-01-25T22:35:10.107Z,6.65
2024-01-25T22:37:40.528Z,6.63
2024-01-25T22:40:13.245Z,6.65
2024-01-25T22:42:43.685Z,5.97
2024-01-25T22:45:14.314Z,5.70
2024-01-25T22:47:44.740Z,6.47
2024-01-25T22:50:18.005Z,6.20
2024-01-25T22:52:48.406Z,6.25
2024-01-25T22:55:19.057Z,6.30
2024-01-25T22:57:49.899Z,6.82
2024-01-25T23:00:25.151Z,6.25
2024-01-25T23:02:55.757Z,5.85
2024-01-25T23:05:28.943Z,5.53
2024-01-25T23:07:59.297Z,5.57
2024-01-25T23:10:29.682Z,5.65
2024-01-25T23:13:00.757Z,5.55
2024-01-25T23:15:31.278Z,5.32
2024-01-25T23:18:01.987Z,5.00
2024-01-25T23:20:36.362Z,5.07
2024-01-25T23:23:08.248Z,5.22
2024-01-25T23:25:38.636Z,5.07
2024-01-25T23:28:09.700Z,4.70
2024-01-25T23:30:40.171Z,4.75
2024-01-25T23:33:11.203Z,4.40
2024-01-25T23:35:45.139Z,4.43
2024-01-25T23:38:15.560Z,4.40
2024-01-25T23:40:46.871Z,4.10
2024-01-25T23:43:17.345Z,3.72
2024-01-25T23:45:48.031Z,3.70
2024-01-25T23:48:19.173Z,3.17
2024-01-25T23:50:52.670Z,3.05
2024-01-25T23:53:23.038Z,2.70
2024-01-25T23:55:53.573Z,2.47
2024-01-25T23:58:24.180Z,1.98
